Time;durP1;ratioP1;P1;durP2;ratioP2;P2;SDS_P1;SDS_P2;PMS_P1;PMS_P2;Temp;Humidity;BMP_temperature;BMP_pressure;BME280_temperature;BME280_humidity;BME280_pressure;Samples;Min_cycle;Max_cycle;Signal;HPM_P1;HPM_P2
2022/04/27 00:00:25;;;;;;;;;;;8.60;99.90;;;;;;5027926;28;19924;-56
2022/04/27 00:02:51;;;;;;;;;;;8.60;99.90;;;;;;5029522;28;19909;-56
2022/04/27 00:05:16;;;;;;;;;;;8.60;99.90;;;;;;5029604;28;19913;-57
2022/04/27 00:07:42;;;;;;;;;;;8.60;99.90;;;;;;5030802;28;19931;-57
2022/04/27 00:10:07;;;;;;;;;;;8.60;99.90;;;;;;5029742;28;19966;-53
2022/04/27 00:12:37;;;;;;;;;;;8.60;99.90;;;;;;5030450;28;19962;-55
2022/04/27 00:15:03;;;;;;;;;;;8.40;99.90;;;;;;5027137;28;20003;-52
2022/04/27 00:17:28;;;;;;;;;;;8.30;99.90;;;;;;5028037;28;20435;-56
2022/04/27 00:19:53;;;;;;;;;;;8.20;99.90;;;;;;5029046;28;20031;-56
2022/04/27 00:22:19;;;;;;;;;;;8.10;99.90;;;;;;5029402;28;19967;-56
2022/04/27 00:24:45;;;;;;;;;;;8.20;99.90;;;;;;5029617;28;19999;-56
2022/04/27 00:27:10;;;;;;;;;;;8.20;99.90;;;;;;5027232;28;20008;-51
2022/04/27 00:29:35;;;;;;;;;;;8.20;99.90;;;;;;5029920;28;19991;-56
2022/04/27 00:32:01;;;;;;;;;;;8.30;99.90;;;;;;5030820;28;19955;-53
2022/04/27 00:34:26;;;;;;;;;;;8.30;99.90;;;;;;5028639;28;19917;-55
2022/04/27 00:36:52;;;;;;;;;;;8.30;99.90;;;;;;5030477;28;20235;-58
2022/04/27 00:39:17;;;;;;;;;;;8.30;99.90;;;;;;5030115;28;19909;-55
2022/04/27 00:41:59;;;;;;;;;;;8.30;99.90;;;;;;5029899;28;19947;-54
2022/04/27 00:44:27;;;;;;;;;;;8.40;99.90;;;;;;5029365;28;19909;-58
2022/04/27 00:46:53;;;;;;;;;;;8.40;99.90;;;;;;5029345;28;19913;-53
2022/04/27 00:49:18;;;;;;;;;;;8.40;99.90;;;;;;5030490;28;20378;-58
2022/04/27 00:51:44;;;;;;;;;;;8.50;99.90;;;;;;5029018;28;19913;-56
2022/04/27 00:54:09;;;;;;;;;;;8.50;99.90;;;;;;5031261;28;19909;-56
2022/04/27 00:56:35;;;;;;;;;;;8.40;99.90;;;;;;5030555;28;20373;-57
2022/04/27 00:59:00;;;;;;;;;;;8.50;99.90;;;;;;5028086;28;19932;-56
2022/04/27 01:01:26;;;;;;;;;;;8.50;99.90;;;;;;5034218;28;19909;-55
2022/04/27 01:03:51;;;;;;;;;;;8.40;99.90;;;;;;5033196;28;19923;-59
2022/04/27 01:06:17;;;;;;;;;;;8.50;99.90;;;;;;5035069;28;19912;-52
2022/04/27 01:08:42;;;;;;;;;;;8.50;99.90;;;;;;5034363;28;19913;-54
2022/04/27 01:11:09;;;;;;;;;;;8.50;99.90;;;;;;5032516;28;19917;-53
2022/04/27 01:13:37;;;;;;;;;;;8.50;99.90;;;;;;5033103;28;19917;-56
2022/04/27 01:16:04;;;;;;;;;;;8.50;99.90;;;;;;5034158;28;19991;-54
2022/04/27 01:18:29;;;;;;;;;;;8.50;99.90;;;;;;5032543;28;20337;-56
2022/04/27 01:20:55;;;;;;;;;;;8.50;99.90;;;;;;5033139;28;19909;-55
2022/04/27 01:23:20;;;;;;;;;;;8.50;99.90;;;;;;5033817;28;19909;-52
2022/04/27 01:25:50;;;;;;;;;;;8.50;99.90;;;;;;5032435;28;19939;-54
2022/04/27 01:28:16;;;;;;;;;;;8.50;99.90;;;;;;5033246;28;19932;-56
2022/04/27 01:30:44;;;;;;;;;;;8.50;99.90;;;;;;5032910;28;19909;-54
2022/04/27 01:33:10;;;;;;;;;;;8.50;99.90;;;;;;5031922;28;20073;-57
2022/04/27 01:35:36;;;;;;;;;;;8.50;99.90;;;;;;5027145;28;19909;-53
2022/04/27 01:38:01;;;;;;;;;;;8.50;99.90;;;;;;5034398;28;20366;-53
2022/04/27 01:40:27;;;;;;;;;;;8.50;99.90;;;;;;5032421;28;19928;-57
2022/04/27 01:42:52;;;;;;;;;;;8.50;99.90;;;;;;5033295;28;19917;-57
2022/04/27 01:45:18;;;;;;;;;;;8.40;99.90;;;;;;5033089;28;19913;-50
2022/04/27 01:47:43;;;;;;;;;;;8.40;99.90;;;;;;5033248;28;19934;-52
2022/04/27 01:50:09;;;;;;;;;;;8.40;99.90;;;;;;5032756;28;19952;-53
2022/04/27 01:55:19;;;;;;;;;;;8.40;99.90;;;;;;5030308;28;19916;-53
2022/04/27 01:57:45;;;;;;;;;;;8.40;99.90;;;;;;5032892;28;19917;-58
2022/04/27 02:00:11;;;;;;;;;;;8.40;99.90;;;;;;5032272;28;19916;-55
2022/04/27 02:02:36;;;;;;;;;;;8.30;99.90;;;;;;5032319;28;19943;-55
2022/04/27 02:05:02;;;;;;;;;;;8.30;99.90;;;;;;5032322;28;19964;-53
2022/04/27 02:07:28;;;;;;;;;;;8.20;99.90;;;;;;5029818;28;19909;-53
2022/04/27 02:09:53;;;;;;;;;;;8.20;99.90;;;;;;5030122;28;19917;-53
2022/04/27 02:12:19;;;;;;;;;;;8.10;99.90;;;;;;5031420;28;19908;-58
2022/04/27 02:14:44;;;;;;;;;;;8.20;99.90;;;;;;5032224;28;19917;-53
2022/04/27 02:17:10;;;;;;;;;;;8.30;99.90;;;;;;5031498;28;19909;-52
2022/04/27 02:19:36;;;;;;;;;;;8.30;99.90;;;;;;5032823;28;19915;-56
2022/04/27 02:22:02;;;;;;;;;;;8.30;99.90;;;;;;5032275;28;19912;-54
2022/04/27 02:24:27;;;;;;;;;;;8.30;99.90;;;;;;5032044;28;20367;-53
2022/04/27 02:26:54;;;;;;;;;;;8.20;99.90;;;;;;5031270;28;19913;-56
2022/04/27 02:29:20;;;;;;;;;;;8.30;99.90;;;;;;5032115;28;19916;-54
2022/04/27 02:31:46;;;;;;;;;;;8.30;99.90;;;;;;5030343;28;20389;-51
2022/04/27 02:34:11;;;;;;;;;;;8.30;99.90;;;;;;5031941;28;19955;-54
2022/04/27 02:36:37;;;;;;;;;;;8.30;99.90;;;;;;5030670;28;19913;-50
2022/04/27 02:39:02;;;;;;;;;;;8.30;99.90;;;;;;5032333;28;20291;-54
2022/04/27 02:41:28;;;;;;;;;;;8.30;99.90;;;;;;5031514;28;19916;-53
2022/04/27 02:43:55;;;;;;;;;;;8.30;99.90;;;;;;5032206;28;19970;-55
2022/04/27 02:46:20;;;;;;;;;;;8.30;99.90;;;;;;5028138;28;19999;-54
2022/04/27 02:54:14;;;;;;;;;;;8.20;99.90;;;;;;5031415;28;20058;-55
2022/04/27 02:56:40;;;;;;;;;;;8.20;99.90;;;;;;5030280;28;19908;-54
2022/04/27 02:59:05;;;;;;;;;;;8.20;99.90;;;;;;5031900;28;20282;-55
2022/04/27 03:01:31;;;;;;;;;;;8.10;99.90;;;;;;5027780;28;19975;-55
2022/04/27 03:03:56;;;;;;;;;;;8.10;99.90;;;;;;5032023;28;20290;-57
2022/04/27 03:06:22;;;;;;;;;;;8.10;99.90;;;;;;5029506;28;19939;-55
2022/04/27 03:08:47;;;;;;;;;;;8.00;99.90;;;;;;5032468;28;19920;-55
2022/04/27 03:11:12;;;;;;;;;;;8.00;99.90;;;;;;5029900;28;19924;-54
2022/04/27 03:13:38;;;;;;;;;;;8.00;99.90;;;;;;5031530;28;19916;-55
2022/04/27 03:16:03;;;;;;;;;;;8.00;99.90;;;;;;5030410;28;19951;-54
2022/04/27 03:18:29;;;;;;;;;;;8.00;99.90;;;;;;5029132;28;19913;-55
2022/04/27 03:20:54;;;;;;;;;;;8.00;99.90;;;;;;5031198;28;19913;-56
2022/04/27 03:23:20;;;;;;;;;;;7.90;99.90;;;;;;5029655;28;19912;-53
2022/04/27 03:25:45;;;;;;;;;;;7.90;99.90;;;;;;5031678;28;19920;-55
2022/04/27 03:28:12;;;;;;;;;;;7.90;99.90;;;;;;5031156;28;19913;-55
2022/04/27 03:30:37;;;;;;;;;;;7.90;99.90;;;;;;5026687;28;19952;-57
2022/04/27 03:33:03;;;;;;;;;;;7.80;99.90;;;;;;5030253;28;19960;-54
2022/04/27 03:35:28;;;;;;;;;;;7.90;99.90;;;;;;5030217;28;19905;-56
2022/04/27 03:37:55;;;;;;;;;;;7.80;99.90;;;;;;5031729;28;19916;-56
2022/04/27 03:40:21;;;;;;;;;;;7.80;99.90;;;;;;5030688;28;19909;-54
2022/04/27 03:42:47;;;;;;;;;;;7.80;99.90;;;;;;5031336;28;19912;-53
2022/04/27 03:45:13;;;;;;;;;;;7.80;99.90;;;;;;5030891;28;20349;-54
2022/04/27 03:47:38;;;;;;;;;;;7.70;99.90;;;;;;5031034;28;19962;-56
2022/04/27 03:50:04;;;;;;;;;;;7.70;99.90;;;;;;5029972;28;19913;-54
2022/04/27 03:52:30;;;;;;;;;;;7.70;99.90;;;;;;5031575;28;19915;-57
2022/04/27 03:55:00;;;;;;;;;;;7.70;99.90;;;;;;5030702;28;19913;-50
2022/04/27 03:57:25;;;;;;;;;;;7.70;99.90;;;;;;5030981;28;19909;-56
2022/04/27 03:59:51;;;;;;;;;;;7.60;99.90;;;;;;5032849;28;19996;-56
2022/04/27 04:02:17;;;;;;;;;;;7.60;99.90;;;;;;5031849;28;20383;-57
2022/04/27 04:04:42;;;;;;;;;;;7.60;99.90;;;;;;5031639;28;20003;-56
2022/04/27 04:07:08;;;;;;;;;;;7.60;99.90;;;;;;5030847;28;19912;-57
2022/04/27 04:09:33;;;;;;;;;;;7.50;99.90;;;;;;5026725;28;19909;-54
2022/04/27 04:11:59;;;;;;;;;;;7.50;99.90;;;;;;5031400;28;20362;-57
2022/04/27 04:14:24;;;;;;;;;;;7.50;99.90;;;;;;5030707;28;20321;-56
2022/04/27 04:16:50;;;;;;;;;;;7.40;99.90;;;;;;5030823;28;19912;-56
2022/04/27 04:19:15;;;;;;;;;;;7.40;99.90;;;;;;5031609;28;20008;-53
2022/04/27 04:21:41;;;;;;;;;;;7.40;99.90;;;;;;5029696;28;20441;-57
2022/04/27 04:24:06;;;;;;;;;;;7.30;99.90;;;;;;5030177;28;19916;-54
2022/04/27 04:29:16;;;;;;;;;;;7.30;99.90;;;;;;5028958;28;20302;-55
2022/04/27 04:31:41;;;;;;;;;;;7.30;99.90;;;;;;5026501;28;19913;-56
2022/04/27 04:34:06;;;;;;;;;;;7.30;99.90;;;;;;5030245;28;19920;-54
2022/04/27 04:36:32;;;;;;;;;;;7.30;99.90;;;;;;5031256;28;19916;-56
2022/04/27 04:38:58;;;;;;;;;;;7.20;99.90;;;;;;5027419;28;20043;-55
2022/04/27 04:41:23;;;;;;;;;;;7.20;99.90;;;;;;5029418;28;20318;-58
2022/04/27 04:43:48;;;;;;;;;;;7.20;99.90;;;;;;5025751;28;19913;-56
2022/04/27 04:46:14;;;;;;;;;;;7.20;99.90;;;;;;5028771;28;19961;-55
2022/04/27 04:48:39;;;;;;;;;;;7.20;99.90;;;;;;5030112;28;19920;-56
2022/04/27 04:51:05;;;;;;;;;;;7.20;99.90;;;;;;5028783;28;19936;-56
2022/04/27 04:53:30;;;;;;;;;;;7.20;99.90;;;;;;5029437;28;19909;-55
2022/04/27 04:55:56;;;;;;;;;;;7.30;99.90;;;;;;5029478;28;20318;-57
2022/04/27 04:58:21;;;;;;;;;;;7.30;99.90;;;;;;5024408;28;19975;-57
2022/04/27 05:00:48;;;;;;;;;;;7.30;99.90;;;;;;5022529;28;19917;-56
2022/04/27 05:03:14;;;;;;;;;;;7.30;99.90;;;;;;5022861;28;20535;-58
2022/04/27 05:05:39;;;;;;;;;;;7.40;99.90;;;;;;5026987;28;19920;-56
2022/04/27 05:08:07;;;;;;;;;;;7.40;99.90;;;;;;5028891;28;19916;-56
2022/04/27 05:10:33;;;;;;;;;;;7.40;99.90;;;;;;5026001;28;19962;-58
2022/04/27 05:12:59;;;;;;;;;;;7.40;99.90;;;;;;5026292;28;19917;-58
2022/04/27 05:15:24;;;;;;;;;;;7.50;99.90;;;;;;5031097;28;20367;-55
2022/04/27 05:17:49;;;;;;;;;;;7.50;99.90;;;;;;5029971;28;19909;-57
2022/04/27 05:20:15;;;;;;;;;;;7.50;99.90;;;;;;5030438;28;20571;-58
2022/04/27 05:22:41;;;;;;;;;;;7.50;99.90;;;;;;5028419;28;20340;-56
2022/04/27 05:25:08;;;;;;;;;;;7.50;99.90;;;;;;5025625;28;20055;-51
2022/04/27 05:27:35;;;;;;;;;;;7.50;99.90;;;;;;5009601;28;19916;-55
2022/04/27 05:32:45;;;;;;;;;;;7.60;99.90;;;;;;5034484;28;20018;-55
2022/04/27 05:35:10;;;;;;;;;;;7.50;99.90;;;;;;5030956;28;19952;-59
2022/04/27 05:37:36;;;;;;;;;;;7.60;99.90;;;;;;5012915;28;19928;-58
2022/04/27 05:40:02;;;;;;;;;;;7.60;99.90;;;;;;5025710;28;19912;-60
2022/04/27 05:42:28;;;;;;;;;;;7.60;99.90;;;;;;5029284;28;19920;-56
2022/04/27 05:44:53;;;;;;;;;;;7.60;99.90;;;;;;5029899;28;20005;-59
2022/04/27 05:47:19;;;;;;;;;;;7.60;99.90;;;;;;5032976;28;20023;-58
2022/04/27 05:49:44;;;;;;;;;;;7.60;99.90;;;;;;5033556;28;19917;-58
2022/04/27 05:52:10;;;;;;;;;;;7.70;99.90;;;;;;5033558;28;19959;-58
2022/04/27 05:54:35;;;;;;;;;;;7.60;99.90;;;;;;5033609;28;19905;-55
2022/04/27 05:57:00;;;;;;;;;;;7.60;99.90;;;;;;5034586;28;19905;-54
2022/04/27 05:59:26;;;;;;;;;;;7.70;99.90;;;;;;5058457;22;19909;-58
2022/04/27 06:01:51;;;;;;;;;;;7.70;99.90;;;;;;5089699;28;20353;-59
2022/04/27 06:04:17;;;;;;;;;;;7.70;99.90;;;;;;5092681;28;19904;-58
2022/04/27 06:06:42;;;;;;;;;;;7.70;99.90;;;;;;5092895;28;20360;-57
2022/04/27 06:09:08;;;;;;;;;;;7.80;99.90;;;;;;5092173;28;19915;-59
2022/04/27 06:11:33;;;;;;;;;;;7.80;99.90;;;;;;5106571;28;19933;-59
2022/04/27 06:13:59;;;;;;;;;;;7.90;99.90;;;;;;5108815;28;19907;-60
2022/04/27 06:16:24;;;;;;;;;;;8.00;99.90;;;;;;5104087;28;19904;-61
2022/04/27 06:18:50;;;;;;;;;;;8.00;99.90;;;;;;5096914;28;20057;-60
2022/04/27 06:21:17;;;;;;;;;;;8.10;99.90;;;;;;5105316;28;19947;-60
2022/04/27 06:23:43;;;;;;;;;;;8.20;99.90;;;;;;5099890;28;19908;-57
2022/04/27 06:26:08;;;;;;;;;;;8.30;99.90;;;;;;5111433;28;20616;-60
2022/04/27 06:28:34;;;;;;;;;;;8.30;99.90;;;;;;5106090;28;19973;-60
2022/04/27 06:31:00;;;;;;;;;;;8.40;99.90;;;;;;5087679;28;19904;-60
2022/04/27 06:33:25;;;;;;;;;;;8.50;99.90;;;;;;5095083;28;19995;-59
2022/04/27 06:35:51;;;;;;;;;;;8.50;99.90;;;;;;5094943;28;19911;-59
2022/04/27 06:38:16;;;;;;;;;;;8.60;99.90;;;;;;5105748;28;19948;-62
2022/04/27 06:40:42;;;;;;;;;;;8.70;99.90;;;;;;5113413;27;19939;-60
2022/04/27 06:43:07;;;;;;;;;;;8.70;99.90;;;;;;5112247;28;20308;-60
2022/04/27 06:45:36;;;;;;;;;;;8.80;99.90;;;;;;5110425;28;19911;-60
2022/04/27 06:48:02;;;;;;;;;;;8.80;99.90;;;;;;5096151;28;20285;-56
2022/04/27 06:50:28;;;;;;;;;;;8.90;99.90;;;;;;5093409;28;20392;-58
2022/04/27 06:52:54;;;;;;;;;;;9.00;99.90;;;;;;5099376;28;19963;-60
2022/04/27 06:55:20;;;;;;;;;;;9.10;99.90;;;;;;5101691;28;19950;-60
2022/04/27 06:57:45;;;;;;;;;;;9.10;99.90;;;;;;5092753;28;19904;-61
2022/04/27 07:00:12;;;;;;;;;;;9.20;99.90;;;;;;5092623;28;19912;-60
2022/04/27 07:02:38;;;;;;;;;;;9.20;99.90;;;;;;5092254;28;19977;-60
2022/04/27 07:05:04;;;;;;;;;;;9.30;99.90;;;;;;5092010;28;19908;-59
2022/04/27 07:07:29;;;;;;;;;;;9.30;99.90;;;;;;5089466;28;19919;-57
2022/04/27 07:09:55;;;;;;;;;;;9.40;99.90;;;;;;5094538;28;19904;-60
2022/04/27 07:12:21;;;;;;;;;;;9.40;99.90;;;;;;5091508;28;19908;-57
2022/04/27 07:14:46;;;;;;;;;;;9.50;99.90;;;;;;5104899;28;19904;-56
2022/04/27 07:17:12;;;;;;;;;;;9.50;99.90;;;;;;5095739;28;19911;-60
2022/04/27 07:19:38;;;;;;;;;;;9.60;99.90;;;;;;5104759;28;19911;-59
2022/04/27 07:22:03;;;;;;;;;;;9.70;99.90;;;;;;5107199;28;19904;-59
2022/04/27 07:24:28;;;;;;;;;;;9.80;99.90;;;;;;5110758;28;19912;-60
2022/04/27 07:26:56;;;;;;;;;;;9.90;99.90;;;;;;5097589;28;19958;-60
2022/04/27 07:29:21;;;;;;;;;;;10.00;99.90;;;;;;5091803;28;19904;-58
2022/04/27 07:31:47;;;;;;;;;;;10.00;99.90;;;;;;5101377;28;19998;-57
2022/04/27 07:34:13;;;;;;;;;;;10.10;99.90;;;;;;5094839;28;19904;-60
2022/04/27 07:36:38;;;;;;;;;;;10.10;99.90;;;;;;5104641;28;19912;-59
2022/04/27 07:39:05;;;;;;;;;;;10.20;99.90;;;;;;5099158;28;19911;-60
2022/04/27 07:41:31;;;;;;;;;;;10.20;99.90;;;;;;5105346;28;19998;-59
2022/04/27 07:43:57;;;;;;;;;;;10.30;99.90;;;;;;5099489;28;19957;-60
2022/04/27 07:46:23;;;;;;;;;;;10.40;99.90;;;;;;5099722;28;20349;-58
2022/04/27 07:48:51;;;;;;;;;;;10.50;99.90;;;;;;5091234;28;20420;-59
2022/04/27 07:51:17;;;;;;;;;;;10.50;99.90;;;;;;5087411;28;19943;-62
2022/04/27 07:53:43;;;;;;;;;;;10.70;99.90;;;;;;5087757;28;19954;-60
2022/04/27 07:56:08;;;;;;;;;;;10.70;99.90;;;;;;5110997;28;19908;-60
2022/04/27 07:58:34;;;;;;;;;;;10.80;99.90;;;;;;5093052;28;20285;-61
2022/04/27 08:01:00;;;;;;;;;;;10.90;99.90;;;;;;5089325;28;20423;-58
2022/04/27 08:03:26;;;;;;;;;;;10.90;99.90;;;;;;5104359;28;19990;-61
2022/04/27 08:05:51;;;;;;;;;;;11.00;99.90;;;;;;5089711;28;19953;-59
2022/04/27 08:08:17;;;;;;;;;;;11.10;99.90;;;;;;5090529;28;20463;-60
2022/04/27 08:10:42;;;;;;;;;;;11.20;99.90;;;;;;5090944;28;19904;-60
2022/04/27 08:13:08;;;;;;;;;;;11.30;99.90;;;;;;5089651;28;19908;-60
2022/04/27 08:15:33;;;;;;;;;;;11.30;99.90;;;;;;5092314;28;19908;-60
2022/04/27 08:18:00;;;;;;;;;;;11.40;99.90;;;;;;5087893;28;19957;-60
2022/04/27 08:23:13;;;;;;;;;;;11.50;99.90;;;;;;5108696;28;19925;-59
2022/04/27 08:25:39;;;;;;;;;;;11.60;99.90;;;;;;5092839;28;20369;-60
2022/04/27 08:28:08;;;;;;;;;;;11.70;99.90;;;;;;5094029;28;19983;-62
2022/04/27 08:30:37;;;;;;;;;;;11.70;99.90;;;;;;5096890;28;19914;-62
2022/04/27 08:33:04;;;;;;;;;;;11.80;99.90;;;;;;5090548;28;19908;-60
2022/04/27 08:35:29;;;;;;;;;;;11.80;99.90;;;;;;5092045;28;19936;-57
2022/04/27 08:37:55;;;;;;;;;;;11.90;99.90;;;;;;5090811;28;19946;-59
2022/04/27 08:40:21;;;;;;;;;;;11.90;99.90;;;;;;5089001;28;19908;-60
2022/04/27 08:42:48;;;;;;;;;;;12.00;99.90;;;;;;5089692;28;20258;-59
2022/04/27 08:45:13;;;;;;;;;;;12.10;99.90;;;;;;5091307;28;19995;-57
2022/04/27 08:47:39;;;;;;;;;;;12.20;99.90;;;;;;5089125;28;20010;-59
2022/04/27 08:50:14;;;;;;;;;;;12.30;99.90;;;;;;5091155;28;19911;-60
2022/04/27 08:52:40;;;;;;;;;;;12.40;99.90;;;;;;5090337;28;20479;-60
2022/04/27 08:55:06;;;;;;;;;;;12.50;99.90;;;;;;5091228;28;20293;-60
2022/04/27 08:57:31;;;;;;;;;;;12.60;99.90;;;;;;5095286;28;19908;-58
2022/04/27 08:59:57;;;;;;;;;;;12.70;99.90;;;;;;5100288;28;19911;-61
2022/04/27 09:02:23;;;;;;;;;;;12.80;99.90;;;;;;5094914;28;19908;-62
2022/04/27 09:05:05;;;;;;;;;;;12.90;99.90;;;;;;5111590;28;19908;-61
2022/04/27 09:07:43;;;;;;;;;;;13.00;99.90;;;;;;5102752;28;20377;-60
2022/04/27 09:10:10;;;;;;;;;;;13.10;99.90;;;;;;5110986;28;19914;-59
2022/04/27 09:12:36;;;;;;;;;;;13.20;99.90;;;;;;5092115;28;19958;-61
2022/04/27 09:15:07;;;;;;;;;;;13.40;99.90;;;;;;5097149;28;19908;-61
2022/04/27 09:23:03;;;;;;;;;;;13.60;99.90;;;;;;5101506;28;20002;-59
2022/04/27 09:25:32;;;;;;;;;;;13.80;99.90;;;;;;5102720;28;19955;-58
2022/04/27 09:27:59;;;;;;;;;;;14.00;99.90;;;;;;5108493;28;19904;-62
2022/04/27 09:30:28;;;;;;;;;;;14.00;99.90;;;;;;5103963;28;19919;-57
2022/04/27 09:32:53;;;;;;;;;;;14.10;99.90;;;;;;5090373;28;20255;-60
2022/04/27 09:35:28;;;;;;;;;;;13.90;99.90;;;;;;5094356;28;19946;-58
2022/04/27 09:37:54;;;;;;;;;;;13.80;99.90;;;;;;5094906;28;20380;-61
2022/04/27 09:40:19;;;;;;;;;;;14.00;99.90;;;;;;5091647;28;19908;-60
2022/04/27 09:42:46;;;;;;;;;;;14.10;99.90;;;;;;5099184;28;19965;-55
2022/04/27 09:45:19;;;;;;;;;;;14.20;99.90;;;;;;5091935;28;19914;-60
2022/04/27 09:47:48;;;;;;;;;;;14.30;99.90;;;;;;5087269;28;20402;-59
2022/04/27 09:50:14;;;;;;;;;;;14.60;99.90;;;;;;5087517;28;19908;-58
2022/04/27 09:52:40;;;;;;;;;;;14.80;99.90;;;;;;5107895;28;19953;-60
2022/04/27 09:55:06;;;;;;;;;;;14.80;99.90;;;;;;5093705;28;19912;-61
2022/04/27 09:57:35;;;;;;;;;;;14.90;99.90;;;;;;5107555;28;19923;-59
2022/04/27 10:00:02;;;;;;;;;;;14.80;99.90;;;;;;5093853;28;20045;-60
2022/04/27 10:02:30;;;;;;;;;;;14.90;99.90;;;;;;5092712;28;19908;-60
2022/04/27 10:04:56;;;;;;;;;;;15.00;99.90;;;;;;5093856;28;20011;-60
2022/04/27 10:07:22;;;;;;;;;;;15.30;99.90;;;;;;5091760;28;19912;-60
2022/04/27 10:09:49;;;;;;;;;;;15.20;99.90;;;;;;5092813;28;19912;-59
2022/04/27 10:12:15;;;;;;;;;;;15.40;99.90;;;;;;5082610;28;19912;-59
2022/04/27 10:14:42;;;;;;;;;;;15.80;99.90;;;;;;5095722;28;19963;-59
2022/04/27 10:17:07;;;;;;;;;;;16.20;99.90;;;;;;5098115;28;19999;-58
2022/04/27 10:19:33;;;;;;;;;;;16.50;99.90;;;;;;5094239;28;20373;-59
2022/04/27 10:24:33;;;;;;;;;;;16.00;99.90;;;;;;5105638;28;19908;-60
2022/04/27 10:27:14;;;;;;;;;;;16.00;99.90;;;;;;5098932;28;19915;-60
2022/04/27 10:29:40;;;;;;;;;;;15.90;99.90;;;;;;5092415;28;19904;-60
2022/04/27 10:32:06;;;;;;;;;;;15.70;99.90;;;;;;5091465;28;19908;-61
2022/04/27 10:34:33;;;;;;;;;;;15.30;99.90;;;;;;5094522;28;19912;-60
2022/04/27 10:37:00;;;;;;;;;;;14.80;99.90;;;;;;5088543;28;20456;-59
2022/04/27 10:39:25;;;;;;;;;;;14.80;99.90;;;;;;5089510;28;19911;-61
2022/04/27 10:42:03;;;;;;;;;;;15.30;99.90;;;;;;5097086;28;19954;-60
2022/04/27 10:44:47;;;;;;;;;;;15.80;99.90;;;;;;5087912;28;19916;-60
2022/04/27 10:47:19;;;;;;;;;;;15.70;99.90;;;;;;5098032;28;20042;-60
2022/04/27 10:49:48;;;;;;;;;;;15.30;99.90;;;;;;5090607;28;19987;-60
2022/04/27 10:52:13;;;;;;;;;;;15.10;99.90;;;;;;5092491;28;19957;-58
2022/04/27 10:54:39;;;;;;;;;;;15.00;99.90;;;;;;5110195;28;19903;-59
2022/04/27 10:57:14;;;;;;;;;;;15.00;99.90;;;;;;5087571;28;19912;-59
2022/04/27 10:59:49;;;;;;;;;;;15.00;99.90;;;;;;5085823;28;19966;-59
2022/04/27 11:02:30;;;;;;;;;;;15.00;99.90;;;;;;5086697;28;19949;-60
2022/04/27 11:04:56;;;;;;;;;;;15.00;99.90;;;;;;5088676;28;20381;-56
2022/04/27 11:07:25;;;;;;;;;;;15.10;99.90;;;;;;5090622;28;19918;-59
2022/04/27 11:10:06;;;;;;;;;;;15.50;99.90;;;;;;5093537;28;20537;-60
2022/04/27 11:12:33;;;;;;;;;;;16.10;99.90;;;;;;5091093;28;19908;-60
2022/04/27 11:14:59;;;;;;;;;;;16.40;99.90;;;;;;5088951;28;19919;-60
2022/04/27 11:17:25;;;;;;;;;;;16.70;99.90;;;;;;5086369;28;19904;-60
2022/04/27 11:19:52;;;;;;;;;;;17.00;99.90;;;;;;5099353;28;19973;-60
2022/04/27 11:22:18;;;;;;;;;;;16.90;99.90;;;;;;5100345;28;19975;-59
2022/04/27 11:24:46;;;;;;;;;;;16.70;99.90;;;;;;5093343;28;19908;-59
2022/04/27 11:27:12;;;;;;;;;;;16.50;99.90;;;;;;5095438;28;19916;-60
2022/04/27 11:29:37;;;;;;;;;;;16.40;99.90;;;;;;5086154;28;19919;-59
2022/04/27 11:32:07;;;;;;;;;;;16.70;99.90;;;;;;5090989;28;19908;-60
2022/04/27 11:34:33;;;;;;;;;;;16.90;99.90;;;;;;5091271;28;19904;-60
2022/04/27 11:37:11;;;;;;;;;;;16.70;99.90;;;;;;5100131;28;19911;-60
2022/04/27 11:39:37;;;;;;;;;;;16.70;99.90;;;;;;5094406;28;20374;-61
2022/04/27 11:42:02;;;;;;;;;;;16.70;99.90;;;;;;5092634;28;19922;-60
2022/04/27 11:44:29;;;;;;;;;;;17.00;99.90;;;;;;5085003;28;19922;-59
2022/04/27 11:46:56;;;;;;;;;;;17.10;99.90;;;;;;5090719;28;19918;-60
2022/04/27 11:49:23;;;;;;;;;;;17.10;99.90;;;;;;5088179;28;19907;-60
2022/04/27 11:51:48;;;;;;;;;;;17.20;99.90;;;;;;5085173;28;19916;-59
2022/04/27 11:54:34;;;;;;;;;;;17.50;99.90;;;;;;5083735;28;20341;-59
2022/04/27 11:57:03;;;;;;;;;;;17.30;99.90;;;;;;5083207;28;19908;-60
2022/04/27 11:59:44;;;;;;;;;;;17.00;99.90;;;;;;5088657;28;19912;-59
2022/04/27 12:02:09;;;;;;;;;;;16.80;99.90;;;;;;5084839;28;19919;-58
2022/04/27 12:04:35;;;;;;;;;;;17.00;99.90;;;;;;5091493;22;19920;-50
2022/04/27 12:07:01;;;;;;;;;;;17.00;99.90;;;;;;5070176;28;20305;-57
2022/04/27 12:09:26;;;;;;;;;;;17.30;99.90;;;;;;5049850;28;19908;-56
2022/04/27 12:11:53;;;;;;;;;;;17.70;99.90;;;;;;5064538;28;20548;-58
2022/04/27 12:14:19;;;;;;;;;;;17.80;99.90;;;;;;5066102;28;19982;-54
2022/04/27 12:16:45;;;;;;;;;;;18.00;99.90;;;;;;5065917;28;19939;-50
2022/04/27 12:19:10;;;;;;;;;;;17.90;99.90;;;;;;5063487;28;19909;-54
2022/04/27 12:21:37;;;;;;;;;;;17.60;99.90;;;;;;5066533;28;20392;-57
2022/04/27 12:24:19;;;;;;;;;;;17.60;99.90;;;;;;5067884;28;19915;-56
2022/04/27 12:26:45;;;;;;;;;;;17.80;99.90;;;;;;5062851;28;19917;-55
2022/04/27 12:29:11;;;;;;;;;;;18.10;99.90;;;;;;5068108;28;19923;-53
2022/04/27 12:31:37;;;;;;;;;;;18.00;99.90;;;;;;5067062;28;19991;-59
2022/04/27 12:37:29;;;;;;;;;;;18.00;99.90;;;;;;5062474;28;19908;-55
2022/04/27 12:39:38;;;;;;;;;;;18.20;99.90;;;;;;5066802;28;19938;-60
2022/04/27 12:42:08;;;;;;;;;;;18.80;99.90;;;;;;5067312;28;19947;-55
2022/04/27 12:44:41;;;;;;;;;;;18.40;99.90;;;;;;5067764;28;20285;-55
2022/04/27 12:47:08;;;;;;;;;;;18.10;99.90;;;;;;5066456;28;20337;-56
2022/04/27 12:49:35;;;;;;;;;;;17.90;99.90;;;;;;5064670;28;20251;-56
2022/04/27 12:52:17;;;;;;;;;;;17.70;99.90;;;;;;5068020;28;19923;-55
2022/04/27 12:54:44;;;;;;;;;;;17.60;99.90;;;;;;5066383;28;19912;-54
2022/04/27 12:57:09;;;;;;;;;;;17.60;99.90;;;;;;5071713;28;19935;-55
2022/04/27 12:59:54;;;;;;;;;;;17.90;99.90;;;;;;5073591;28;20713;-55
2022/04/27 13:02:19;;;;;;;;;;;18.20;99.90;;;;;;5072226;28;19915;-56
2022/04/27 13:04:46;;;;;;;;;;;18.60;99.90;;;;;;5072790;28;19917;-62
2022/04/27 13:07:12;;;;;;;;;;;19.30;99.90;;;;;;5071913;28;19955;-55
2022/04/27 13:12:21;;;;;;;;;;;19.90;99.90;;;;;;5072472;28;19916;-54
2022/04/27 13:14:47;;;;;;;;;;;20.10;99.90;;;;;;5069800;28;19908;-55
2022/04/27 13:17:12;;;;;;;;;;;20.30;99.90;;;;;;5067689;28;19987;-51
2022/04/27 13:19:38;;;;;;;;;;;19.90;99.90;;;;;;5073263;28;19919;-56
2022/04/27 13:22:03;;;;;;;;;;;20.10;99.90;;;;;;5070339;28;19913;-52
2022/04/27 13:24:30;;;;;;;;;;;20.50;99.90;;;;;;5069030;28;19917;-58
2022/04/27 13:26:55;;;;;;;;;;;20.00;99.90;;;;;;5071890;28;19912;-57
2022/04/27 13:29:21;;;;;;;;;;;19.80;99.90;;;;;;5071602;28;19914;-50
2022/04/27 13:31:47;;;;;;;;;;;19.40;99.90;;;;;;5073418;28;19994;-54
2022/04/27 13:34:12;;;;;;;;;;;19.00;99.90;;;;;;5070372;28;20445;-54
2022/04/27 13:36:38;;;;;;;;;;;18.70;99.90;;;;;;5068796;28;19919;-57
2022/04/27 13:39:03;;;;;;;;;;;18.30;99.90;;;;;;5072286;28;20003;-53
2022/04/27 13:41:28;;;;;;;;;;;18.10;99.90;;;;;;5069768;28;19908;-53
2022/04/27 13:43:56;;;;;;;;;;;18.10;99.90;;;;;;5072665;28;19904;-51
2022/04/27 13:46:21;;;;;;;;;;;18.40;99.90;;;;;;5067527;28;19919;-55
2022/04/27 13:48:46;;;;;;;;;;;19.10;99.90;;;;;;5068767;28;19908;-54
2022/04/27 13:51:17;;;;;;;;;;;19.40;99.90;;;;;;5069453;28;19947;-53
2022/04/27 13:53:42;;;;;;;;;;;19.40;99.90;;;;;;5068882;28;19916;-51
2022/04/27 13:56:08;;;;;;;;;;;19.00;99.90;;;;;;5067788;28;19908;-54
2022/04/27 13:58:35;;;;;;;;;;;19.10;99.90;;;;;;5070196;28;19911;-57
2022/04/27 14:01:01;;;;;;;;;;;19.50;99.90;;;;;;5065642;28;20267;-55
2022/04/27 14:03:27;;;;;;;;;;;19.50;99.90;;;;;;5072152;28;19911;-58
2022/04/27 14:05:52;;;;;;;;;;;19.60;99.90;;;;;;5069590;28;19991;-54
2022/04/27 14:08:18;;;;;;;;;;;19.40;99.90;;;;;;5070479;28;19916;-58
2022/04/27 14:10:43;;;;;;;;;;;19.40;99.90;;;;;;5067501;28;19917;-56
2022/04/27 14:13:13;;;;;;;;;;;19.30;99.90;;;;;;5070150;28;19904;-59
2022/04/27 14:15:39;;;;;;;;;;;19.50;99.90;;;;;;5069527;28;19915;-55
2022/04/27 14:18:13;;;;;;;;;;;20.10;99.90;;;;;;5071009;28;19940;-57
2022/04/27 14:20:40;;;;;;;;;;;20.40;99.90;;;;;;5068446;28;20259;-59
2022/04/27 14:23:06;;;;;;;;;;;20.70;98.70;;;;;;5069813;28;19908;-53
2022/04/27 14:25:31;;;;;;;;;;;20.80;99.50;;;;;;5068677;28;19915;-57
2022/04/27 14:27:57;;;;;;;;;;;20.50;99.10;;;;;;5064581;28;19954;-57
2022/04/27 14:30:22;;;;;;;;;;;20.20;99.90;;;;;;5069096;28;19923;-55
2022/04/27 14:32:51;;;;;;;;;;;20.20;99.40;;;;;;5070056;28;20534;-55
2022/04/27 14:35:17;;;;;;;;;;;20.10;99.90;;;;;;5063917;28;19944;-53
2022/04/27 14:37:43;;;;;;;;;;;20.50;99.70;;;;;;5065512;28;19938;-53
2022/04/27 14:40:09;;;;;;;;;;;20.20;98.00;;;;;;5064944;28;20024;-53
2022/04/27 14:42:34;;;;;;;;;;;20.20;99.60;;;;;;5063776;28;19916;-55
2022/04/27 14:45:00;;;;;;;;;;;20.40;97.70;;;;;;5069880;28;19916;-57
2022/04/27 14:47:25;;;;;;;;;;;20.50;97.70;;;;;;5062766;28;19958;-57
2022/04/27 14:49:51;;;;;;;;;;;20.30;97.80;;;;;;5059336;28;20371;-56